sensor_id;sensor_type;location;lat;lon;timestamp;temperature;humidity
51011;DHT22;37038;50.182;8.624;2023-02-28T00:02:30;0.40;99.90
51011;DHT22;37038;50.182;8.624;2023-02-28T00:05:19;0.40;99.90
51011;DHT22;37038;50.182;8.624;2023-02-28T00:08:08;0.30;99.90
51011;DHT22;37038;50.182;8.624;2023-02-28T00:10:56;0.30;99.90
51011;DHT22;37038;50.182;8.624;2023-02-28T00:13:48;0.30;99.90
51011;DHT22;37038;50.182;8.624;2023-02-28T00:16:39;0.30;99.90
51011;DHT22;37038;50.182;8.624;2023-02-28T00:19:27;0.20;99.90
51011;DHT22;37038;50.182;8.624;2023-02-28T00:22:16;0.20;99.90
51011;DHT22;37038;50.182;8.624;2023-02-28T00:25:05;0.20;99.90
51011;DHT22;37038;50.182;8.624;2023-02-28T00:27:54;0.20;99.90
51011;DHT22;37038;50.182;8.624;2023-02-28T00:30:42;0.10;99.90
51011;DHT22;37038;50.182;8.624;2023-02-28T00:33:30;0.10;99.90
51011;DHT22;37038;50.182;8.624;2023-02-28T00:36:18;0.00;99.90
51011;DHT22;37038;50.182;8.624;2023-02-28T00:39:05;0.10;99.90
51011;DHT22;37038;50.182;8.624;2023-02-28T00:41:53;0.10;99.90
51011;DHT22;37038;50.182;8.624;2023-02-28T00:44:41;0.10;99.90
51011;DHT22;37038;50.182;8.624;2023-02-28T00:47:28;0.10;99.90
51011;DHT22;37038;50.182;8.624;2023-02-28T00:50:19;0.00;99.90
51011;DHT22;37038;50.182;8.624;2023-02-28T00:53:07;0.00;99.90
51011;DHT22;37038;50.182;8.624;2023-02-28T00:55:55;0.00;99.90
51011;DHT22;37038;50.182;8.624;2023-02-28T00:58:43;0.00;99.90
51011;DHT22;37038;50.182;8.624;2023-02-28T01:01:31;0.00;99.90
51011;DHT22;37038;50.182;8.624;2023-02-28T01:04:27;0.00;99.90
51011;DHT22;37038;50.182;8.624;2023-02-28T01:07:17;0.00;99.90
51011;DHT22;37038;50.182;8.624;2023-02-28T01:10:05;-0.10;99.90
51011;DHT22;37038;50.182;8.624;2023-02-28T01:12:53;0.00;99.90
51011;DHT22;37038;50.182;8.624;2023-02-28T01:15:45;-0.20;99.90
51011;DHT22;37038;50.182;8.624;2023-02-28T01:18:33;-0.10;99.90
51011;DHT22;37038;50.182;8.624;2023-02-28T01:21:21;-0.30;99.90
51011;DHT22;37038;50.182;8.624;2023-02-28T01:24:09;-0.30;99.90
51011;DHT22;37038;50.182;8.624;2023-02-28T01:26:57;-0.30;99.90
51011;DHT22;37038;50.182;8.624;2023-02-28T01:29:44;-0.40;99.90
51011;DHT22;37038;50.182;8.624;2023-02-28T01:32:32;-0.40;99.90
51011;DHT22;37038;50.182;8.624;2023-02-28T01:35:20;-0.40;99.90
51011;DHT22;37038;50.182;8.624;2023-02-28T01:38:08;-0.50;99.90
51011;DHT22;37038;50.182;8.624;2023-02-28T01:41:21;-0.50;99.90
51011;DHT22;37038;50.182;8.624;2023-02-28T01:47:38;-0.70;99.90
51011;DHT22;37038;50.182;8.624;2023-02-28T01:50:31;-0.60;99.90
51011;DHT22;37038;50.182;8.624;2023-02-28T01:53:26;-0.70;99.90
51011;DHT22;37038;50.182;8.624;2023-02-28T01:56:21;-0.70;99.90
51011;DHT22;37038;50.182;8.624;2023-02-28T01:59:13;-0.70;99.90
51011;DHT22;37038;50.182;8.624;2023-02-28T02:02:02;-0.70;99.90
51011;DHT22;37038;50.182;8.624;2023-02-28T02:04:55;-0.70;99.90
51011;DHT22;37038;50.182;8.624;2023-02-28T02:07:46;-0.70;99.90
51011;DHT22;37038;50.182;8.624;2023-02-28T02:10:39;-0.80;99.90
51011;DHT22;37038;50.182;8.624;2023-02-28T02:29:45;-0.90;99.90
51011;DHT22;37038;50.182;8.624;2023-02-28T02:38:53;-1.00;99.90
51011;DHT22;37038;50.182;8.624;2023-02-28T02:41:50;-1.00;99.90
51011;DHT22;37038;50.182;8.624;2023-02-28T02:44:49;-1.00;99.90
51011;DHT22;37038;50.182;8.624;2023-02-28T02:47:39;-1.00;99.90
51011;DHT22;37038;50.182;8.624;2023-02-28T02:50:34;-1.00;99.90
51011;DHT22;37038;50.182;8.624;2023-02-28T02:53:28;-1.00;99.90
51011;DHT22;37038;50.182;8.624;2023-02-28T02:56:20;-1.00;99.90
51011;DHT22;37038;50.182;8.624;2023-02-28T02:59:12;-1.00;99.90
51011;DHT22;37038;50.182;8.624;2023-02-28T03:02:03;-1.00;99.90
51011;DHT22;37038;50.182;8.624;2023-02-28T03:04:55;-1.10;99.90
51011;DHT22;37038;50.182;8.624;2023-02-28T03:07:48;-1.00;99.90
51011;DHT22;37038;50.182;8.624;2023-02-28T03:10:38;-1.10;99.90
51011;DHT22;37038;50.182;8.624;2023-02-28T03:13:42;-1.10;99.90
51011;DHT22;37038;50.182;8.624;2023-02-28T03:16:35;-1.10;99.90
51011;DHT22;37038;50.182;8.624;2023-02-28T03:19:38;-1.10;99.90
51011;DHT22;37038;50.182;8.624;2023-02-28T03:25:59;-1.20;99.90
51011;DHT22;37038;50.182;8.624;2023-02-28T03:28:54;-1.20;99.90
51011;DHT22;37038;50.182;8.624;2023-02-28T03:31:58;-1.30;99.90
51011;DHT22;37038;50.182;8.624;2023-02-28T03:38:10;-1.30;99.90
51011;DHT22;37038;50.182;8.624;2023-02-28T03:41:09;-1.30;99.90
51011;DHT22;37038;50.182;8.624;2023-02-28T03:44:07;-1.40;99.90
51011;DHT22;37038;50.182;8.624;2023-02-28T03:47:12;-1.40;99.90
51011;DHT22;37038;50.182;8.624;2023-02-28T03:53:02;-1.40;99.90
51011;DHT22;37038;50.182;8.624;2023-02-28T03:56:07;-1.40;99.90
51011;DHT22;37038;50.182;8.624;2023-02-28T03:59:05;-1.40;99.90
51011;DHT22;37038;50.182;8.624;2023-02-28T04:01:55;-1.40;99.90
51011;DHT22;37038;50.182;8.624;2023-02-28T04:04:45;-1.40;99.90
51011;DHT22;37038;50.182;8.624;2023-02-28T04:07:37;-1.40;99.90
51011;DHT22;37038;50.182;8.624;2023-02-28T04:10:25;-1.50;99.90
51011;DHT22;37038;50.182;8.624;2023-02-28T04:13:13;-1.40;99.90
51011;DHT22;37038;50.182;8.624;2023-02-28T04:16:00;-1.40;99.90
51011;DHT22;37038;50.182;8.624;2023-02-28T04:18:48;-1.40;99.90
51011;DHT22;37038;50.182;8.624;2023-02-28T04:21:38;-1.50;99.90
51011;DHT22;37038;50.182;8.624;2023-02-28T04:24:28;-1.50;99.90
51011;DHT22;37038;50.182;8.624;2023-02-28T04:27:15;-1.40;99.90
51011;DHT22;37038;50.182;8.624;2023-02-28T04:30:03;-1.40;99.90
51011;DHT22;37038;50.182;8.624;2023-02-28T04:32:51;-1.40;99.90
51011;DHT22;37038;50.182;8.624;2023-02-28T04:35:39;-1.40;99.90
51011;DHT22;37038;50.182;8.624;2023-02-28T04:38:27;-1.40;99.90
51011;DHT22;37038;50.182;8.624;2023-02-28T04:41:16;-1.50;99.90
51011;DHT22;37038;50.182;8.624;2023-02-28T04:44:04;-1.50;99.90
51011;DHT22;37038;50.182;8.624;2023-02-28T04:46:51;-1.40;99.90
51011;DHT22;37038;50.182;8.624;2023-02-28T04:49:39;-1.40;99.90
51011;DHT22;37038;50.182;8.624;2023-02-28T04:52:28;-1.30;99.90
51011;DHT22;37038;50.182;8.624;2023-02-28T04:55:16;-1.20;99.90
51011;DHT22;37038;50.182;8.624;2023-02-28T04:58:04;-1.20;99.90
51011;DHT22;37038;50.182;8.624;2023-02-28T05:00:52;-1.20;99.90
51011;DHT22;37038;50.182;8.624;2023-02-28T05:03:41;-1.10;99.90
51011;DHT22;37038;50.182;8.624;2023-02-28T05:06:30;-1.00;99.90
51011;DHT22;37038;50.182;8.624;2023-02-28T05:09:19;-1.00;99.90
51011;DHT22;37038;50.182;8.624;2023-02-28T05:12:07;-0.90;99.90
51011;DHT22;37038;50.182;8.624;2023-02-28T05:14:55;-0.90;99.90
51011;DHT22;37038;50.182;8.624;2023-02-28T05:17:43;-0.90;99.90
51011;DHT22;37038;50.182;8.624;2023-02-28T05:20:31;-0.80;99.90
51011;DHT22;37038;50.182;8.624;2023-02-28T05:23:19;-0.90;99.90
51011;DHT22;37038;50.182;8.624;2023-02-28T05:26:09;-0.90;99.90
51011;DHT22;37038;50.182;8.624;2023-02-28T05:28:57;-0.80;99.90
51011;DHT22;37038;50.182;8.624;2023-02-28T05:31:44;-0.80;99.90
51011;DHT22;37038;50.182;8.624;2023-02-28T05:34:33;-0.80;99.90
51011;DHT22;37038;50.182;8.624;2023-02-28T05:37:21;-0.80;99.90
51011;DHT22;37038;50.182;8.624;2023-02-28T05:40:09;-0.70;99.90
51011;DHT22;37038;50.182;8.624;2023-02-28T05:42:57;-0.60;99.90
51011;DHT22;37038;50.182;8.624;2023-02-28T05:45:45;-0.60;99.90
51011;DHT22;37038;50.182;8.624;2023-02-28T05:48:34;-0.60;99.90
51011;DHT22;37038;50.182;8.624;2023-02-28T05:51:22;-0.70;99.90
51011;DHT22;37038;50.182;8.624;2023-02-28T05:54:10;-0.70;99.90
51011;DHT22;37038;50.182;8.624;2023-02-28T05:57:00;-0.70;99.90
51011;DHT22;37038;50.182;8.624;2023-02-28T05:59:48;-0.70;99.90
51011;DHT22;37038;50.182;8.624;2023-02-28T06:02:35;-0.70;99.90
51011;DHT22;37038;50.182;8.624;2023-02-28T06:05:23;-0.80;99.90
51011;DHT22;37038;50.182;8.624;2023-02-28T06:08:11;-0.80;99.90
51011;DHT22;37038;50.182;8.624;2023-02-28T06:11:03;-0.80;99.90
51011;DHT22;37038;50.182;8.624;2023-02-28T06:13:56;-0.80;99.90
51011;DHT22;37038;50.182;8.624;2023-02-28T06:16:45;-0.90;99.90
51011;DHT22;37038;50.182;8.624;2023-02-28T06:19:38;-0.90;99.90
51011;DHT22;37038;50.182;8.624;2023-02-28T06:22:26;-0.90;99.90
51011;DHT22;37038;50.182;8.624;2023-02-28T06:25:17;-0.90;99.90
51011;DHT22;37038;50.182;8.624;2023-02-28T06:28:10;-1.00;99.90
51011;DHT22;37038;50.182;8.624;2023-02-28T06:30:58;-1.00;99.90
51011;DHT22;37038;50.182;8.624;2023-02-28T06:33:46;-1.00;99.90
51011;DHT22;37038;50.182;8.624;2023-02-28T06:36:33;-0.90;99.90
51011;DHT22;37038;50.182;8.624;2023-02-28T06:39:24;-0.90;99.90
51011;DHT22;37038;50.182;8.624;2023-02-28T06:42:12;-0.80;99.90
51011;DHT22;37038;50.182;8.624;2023-02-28T06:45:00;-0.80;99.90
51011;DHT22;37038;50.182;8.624;2023-02-28T06:47:50;-0.80;99.90
51011;DHT22;37038;50.182;8.624;2023-02-28T06:50:39;-0.80;99.90
51011;DHT22;37038;50.182;8.624;2023-02-28T06:53:27;-0.60;99.90
51011;DHT22;37038;50.182;8.624;2023-02-28T06:56:19;-0.50;99.90
51011;DHT22;37038;50.182;8.624;2023-02-28T06:59:20;-0.50;99.90
51011;DHT22;37038;50.182;8.624;2023-02-28T07:02:08;-0.50;99.90
51011;DHT22;37038;50.182;8.624;2023-02-28T07:04:56;-0.40;99.90
51011;DHT22;37038;50.182;8.624;2023-02-28T07:07:44;0.60;99.90
51011;DHT22;37038;50.182;8.624;2023-02-28T07:10:38;1.80;99.90
51011;DHT22;37038;50.182;8.624;2023-02-28T07:13:26;2.50;99.90
51011;DHT22;37038;50.182;8.624;2023-02-28T07:16:14;2.20;99.90
51011;DHT22;37038;50.182;8.624;2023-02-28T07:19:02;2.70;99.90
51011;DHT22;37038;50.182;8.624;2023-02-28T07:21:52;3.00;99.90
51011;DHT22;37038;50.182;8.624;2023-02-28T07:24:40;3.20;99.90
51011;DHT22;37038;50.182;8.624;2023-02-28T07:27:27;4.10;99.90
51011;DHT22;37038;50.182;8.624;2023-02-28T07:30:16;4.00;99.90
51011;DHT22;37038;50.182;8.624;2023-02-28T07:33:06;4.00;99.90
51011;DHT22;37038;50.182;8.624;2023-02-28T07:36:16;4.20;99.90
51011;DHT22;37038;50.182;8.624;2023-02-28T07:39:06;4.80;99.90
51011;DHT22;37038;50.182;8.624;2023-02-28T07:41:53;5.00;99.90
51011;DHT22;37038;50.182;8.624;2023-02-28T07:44:41;5.60;99.90
51011;DHT22;37038;50.182;8.624;2023-02-28T07:47:30;5.60;98.60
51011;DHT22;37038;50.182;8.624;2023-02-28T07:50:18;6.00;97.20
51011;DHT22;37038;50.182;8.624;2023-02-28T07:53:06;6.20;94.50
51011;DHT22;37038;50.182;8.624;2023-02-28T07:55:55;5.90;94.60
51011;DHT22;37038;50.182;8.624;2023-02-28T07:58:46;6.40;93.00
51011;DHT22;37038;50.182;8.624;2023-02-28T08:01:34;6.40;91.60
51011;DHT22;37038;50.182;8.624;2023-02-28T08:04:22;7.50;90.00
51011;DHT22;37038;50.182;8.624;2023-02-28T08:07:12;7.50;83.80
51011;DHT22;37038;50.182;8.624;2023-02-28T08:10:02;6.70;83.20
51011;DHT22;37038;50.182;8.624;2023-02-28T08:12:57;6.60;84.10
51011;DHT22;37038;50.182;8.624;2023-02-28T08:15:45;7.80;78.50
51011;DHT22;37038;50.182;8.624;2023-02-28T08:18:35;7.80;72.20
51011;DHT22;37038;50.182;8.624;2023-02-28T08:21:23;7.70;73.80
51011;DHT22;37038;50.182;8.624;2023-02-28T08:24:11;7.70;71.80
51011;DHT22;37038;50.182;8.624;2023-02-28T08:26:59;7.60;68.60
51011;DHT22;37038;50.182;8.624;2023-02-28T08:29:47;8.70;65.60
51011;DHT22;37038;50.182;8.624;2023-02-28T08:32:35;8.60;62.20
51011;DHT22;37038;50.182;8.624;2023-02-28T08:35:25;8.10;60.80
51011;DHT22;37038;50.182;8.624;2023-02-28T08:38:14;8.00;60.70
51011;DHT22;37038;50.182;8.624;2023-02-28T08:41:12;8.40;58.30
51011;DHT22;37038;50.182;8.624;2023-02-28T08:44:03;8.10;56.30
51011;DHT22;37038;50.182;8.624;2023-02-28T08:46:55;8.60;52.50
51011;DHT22;37038;50.182;8.624;2023-02-28T08:49:52;7.90;50.70
51011;DHT22;37038;50.182;8.624;2023-02-28T08:52:57;7.60;48.40
51011;DHT22;37038;50.182;8.624;2023-02-28T08:55:58;7.50;44.80
51011;DHT22;37038;50.182;8.624;2023-02-28T08:58:51;7.10;42.70
51011;DHT22;37038;50.182;8.624;2023-02-28T09:01:46;7.00;43.10
51011;DHT22;37038;50.182;8.624;2023-02-28T09:04:34;7.10;43.70
51011;DHT22;37038;50.182;8.624;2023-02-28T09:07:27;7.70;43.00
51011;DHT22;37038;50.182;8.624;2023-02-28T09:10:15;9.00;41.20
51011;DHT22;37038;50.182;8.624;2023-02-28T09:13:20;8.30;36.40
51011;DHT22;37038;50.182;8.624;2023-02-28T09:16:13;7.70;37.10
51011;DHT22;37038;50.182;8.624;2023-02-28T09:19:01;8.00;38.70
51011;DHT22;37038;50.182;8.624;2023-02-28T09:21:49;8.10;38.10
51011;DHT22;37038;50.182;8.624;2023-02-28T09:24:40;8.70;35.70
51011;DHT22;37038;50.182;8.624;2023-02-28T09:27:29;8.30;33.30
51011;DHT22;37038;50.182;8.624;2023-02-28T09:30:19;8.30;33.50
51011;DHT22;37038;50.182;8.624;2023-02-28T09:33:07;8.70;32.20
51011;DHT22;37038;50.182;8.624;2023-02-28T09:36:00;8.50;31.90
51011;DHT22;37038;50.182;8.624;2023-02-28T09:38:50;9.50;32.00
51011;DHT22;37038;50.182;8.624;2023-02-28T09:41:52;8.80;30.00
51011;DHT22;37038;50.182;8.624;2023-02-28T09:44:45;9.20;28.70
51011;DHT22;37038;50.182;8.624;2023-02-28T09:47:35;8.40;29.10
51011;DHT22;37038;50.182;8.624;2023-02-28T09:50:31;9.30;29.40
51011;DHT22;37038;50.182;8.624;2023-02-28T09:53:29;8.90;28.00
51011;DHT22;37038;50.182;8.624;2023-02-28T09:56:44;7.40;27.30
51011;DHT22;37038;50.182;8.624;2023-02-28T10:02:52;8.50;28.70
51011;DHT22;37038;50.182;8.624;2023-02-28T10:11:46;7.40;26.40
51011;DHT22;37038;50.182;8.624;2023-02-28T10:14:39;6.00;28.90
51011;DHT22;37038;50.182;8.624;2023-02-28T10:17:38;5.30;30.30
51011;DHT22;37038;50.182;8.624;2023-02-28T10:20:47;5.20;31.90
51011;DHT22;37038;50.182;8.624;2023-02-28T10:23:37;7.40;28.30
51011;DHT22;37038;50.182;8.624;2023-02-28T10:26:26;5.90;29.20
51011;DHT22;37038;50.182;8.624;2023-02-28T10:29:17;6.00;31.30
51011;DHT22;37038;50.182;8.624;2023-02-28T10:32:06;8.00;27.90
51011;DHT22;37038;50.182;8.624;2023-02-28T10:38:19;7.10;29.10
51011;DHT22;37038;50.182;8.624;2023-02-28T10:41:26;7.70;28.00
51011;DHT22;37038;50.182;8.624;2023-02-28T10:44:23;7.40;26.70
51011;DHT22;37038;50.182;8.624;2023-02-28T10:47:17;6.60;30.00
51011;DHT22;37038;50.182;8.624;2023-02-28T10:50:30;6.30;29.60
51011;DHT22;37038;50.182;8.624;2023-02-28T10:56:19;7.10;28.50
51011;DHT22;37038;50.182;8.624;2023-02-28T11:01:59;10.10;26.00
51011;DHT22;37038;50.182;8.624;2023-02-28T11:04:50;9.50;26.10
51011;DHT22;37038;50.182;8.624;2023-02-28T11:07:38;8.10;25.20
51011;DHT22;37038;50.182;8.624;2023-02-28T11:10:43;7.30;27.30
51011;DHT22;37038;50.182;8.624;2023-02-28T11:13:36;7.10;27.00
51011;DHT22;37038;50.182;8.624;2023-02-28T11:16:37;6.70;27.00
51011;DHT22;37038;50.182;8.624;2023-02-28T11:19:38;6.30;26.50
51011;DHT22;37038;50.182;8.624;2023-02-28T11:22:31;6.10;27.30
51011;DHT22;37038;50.182;8.624;2023-02-28T11:25:25;6.70;27.00
51011;DHT22;37038;50.182;8.624;2023-02-28T11:28:32;7.70;24.50
51011;DHT22;37038;50.182;8.624;2023-02-28T11:31:20;7.80;25.00
51011;DHT22;37038;50.182;8.624;2023-02-28T11:34:25;7.60;24.80
51011;DHT22;37038;50.182;8.624;2023-02-28T11:37:18;10.40;22.40
51011;DHT22;37038;50.182;8.624;2023-02-28T11:40:17;10.80;19.70
51011;DHT22;37038;50.182;8.624;2023-02-28T11:46:32;10.10;19.60
51011;DHT22;37038;50.182;8.624;2023-02-28T11:49:42;11.20;19.30
51011;DHT22;37038;50.182;8.624;2023-02-28T11:52:54;10.50;18.00
51011;DHT22;37038;50.182;8.624;2023-02-28T12:17:32;8.90;19.20
51011;DHT22;37038;50.182;8.624;2023-02-28T12:20:33;10.00;18.10
51011;DHT22;37038;50.182;8.624;2023-02-28T12:26:39;9.10;18.60
51011;DHT22;37038;50.182;8.624;2023-02-28T12:32:35;8.60;20.70
51011;DHT22;37038;50.182;8.624;2023-02-28T12:35:36;9.40;20.20
51011;DHT22;37038;50.182;8.624;2023-02-28T12:38:28;10.40;16.90
51011;DHT22;37038;50.182;8.624;2023-02-28T12:44:34;10.20;16.40
51011;DHT22;37038;50.182;8.624;2023-02-28T12:47:22;10.10;16.90
51011;DHT22;37038;50.182;8.624;2023-02-28T12:50:11;11.00;16.00
51011;DHT22;37038;50.182;8.624;2023-02-28T12:59:14;11.80;14.90
51011;DHT22;37038;50.182;8.624;2023-02-28T13:06:00;10.30;14.80
51011;DHT22;37038;50.182;8.624;2023-02-28T13:11:54;9.80;16.80
51011;DHT22;37038;50.182;8.624;2023-02-28T13:14:43;10.40;16.10
51011;DHT22;37038;50.182;8.624;2023-02-28T13:17:33;10.50;16.20
51011;DHT22;37038;50.182;8.624;2023-02-28T13:20:46;10.80;15.40
51011;DHT22;37038;50.182;8.624;2023-02-28T13:29:39;10.60;15.40
51011;DHT22;37038;50.182;8.624;2023-02-28T13:32:34;11.40;16.20
51011;DHT22;37038;50.182;8.624;2023-02-28T13:35:38;11.30;14.90
51011;DHT22;37038;50.182;8.624;2023-02-28T13:38:42;12.40;14.20
51011;DHT22;37038;50.182;8.624;2023-02-28T13:44:23;11.90;15.00
51011;DHT22;37038;50.182;8.624;2023-02-28T13:47:21;12.00;14.50
51011;DHT22;37038;50.182;8.624;2023-02-28T13:56:27;10.40;15.40
51011;DHT22;37038;50.182;8.624;2023-02-28T13:59:40;11.40;14.80
51011;DHT22;37038;50.182;8.624;2023-02-28T14:06:29;10.40;14.40
51011;DHT22;37038;50.182;8.624;2023-02-28T14:09:40;9.70;16.70
51011;DHT22;37038;50.182;8.624;2023-02-28T14:15:57;10.50;15.40
51011;DHT22;37038;50.182;8.624;2023-02-28T14:18:59;10.60;14.90
51011;DHT22;37038;50.182;8.624;2023-02-28T14:25:33;11.60;14.70
51011;DHT22;37038;50.182;8.624;2023-02-28T14:39:53;9.90;17.00
51011;DHT22;37038;50.182;8.624;2023-02-28T14:42:59;9.90;16.80
51011;DHT22;37038;50.182;8.624;2023-02-28T14:45:54;10.30;16.70
51011;DHT22;37038;50.182;8.624;2023-02-28T14:48:48;8.70;17.70
51011;DHT22;37038;50.182;8.624;2023-02-28T14:51:37;8.40;17.70
51011;DHT22;37038;50.182;8.624;2023-02-28T14:54:24;8.30;18.90
51011;DHT22;37038;50.182;8.624;2023-02-28T14:57:43;9.00;17.90
51011;DHT22;37038;50.182;8.624;2023-02-28T15:00:47;9.20;17.70
51011;DHT22;37038;50.182;8.624;2023-02-28T15:03:39;9.40;18.00
51011;DHT22;37038;50.182;8.624;2023-02-28T15:06:29;9.60;18.00
51011;DHT22;37038;50.182;8.624;2023-02-28T15:09:20;9.20;18.20
51011;DHT22;37038;50.182;8.624;2023-02-28T15:12:14;9.30;18.00
51011;DHT22;37038;50.182;8.624;2023-02-28T15:15:02;9.20;18.60
51011;DHT22;37038;50.182;8.624;2023-02-28T15:17:53;9.50;18.80
51011;DHT22;37038;50.182;8.624;2023-02-28T15:20:44;9.60;18.70
51011;DHT22;37038;50.182;8.624;2023-02-28T15:23:34;10.00;18.40
51011;DHT22;37038;50.182;8.624;2023-02-28T15:26:28;9.60;18.70
51011;DHT22;37038;50.182;8.624;2023-02-28T15:29:24;8.70;19.20
51011;DHT22;37038;50.182;8.624;2023-02-28T15:32:31;8.10;19.90
51011;DHT22;37038;50.182;8.624;2023-02-28T15:41:28;7.80;23.00
51011;DHT22;37038;50.182;8.624;2023-02-28T15:44:27;7.60;23.10
51011;DHT22;37038;50.182;8.624;2023-02-28T15:47:23;7.50;23.40
51011;DHT22;37038;50.182;8.624;2023-02-28T15:50:13;7.10;23.30
51011;DHT22;37038;50.182;8.624;2023-02-28T15:53:33;7.30;23.90
51011;DHT22;37038;50.182;8.624;2023-02-28T15:56:25;6.90;23.60
51011;DHT22;37038;50.182;8.624;2023-02-28T15:59:42;6.40;25.30
51011;DHT22;37038;50.182;8.624;2023-02-28T16:02:33;6.00;25.50
51011;DHT22;37038;50.182;8.624;2023-02-28T16:05:29;5.80;26.00
51011;DHT22;37038;50.182;8.624;2023-02-28T16:08:19;5.60;26.10
51011;DHT22;37038;50.182;8.624;2023-02-28T16:11:09;5.60;26.60
51011;DHT22;37038;50.182;8.624;2023-02-28T16:13:57;5.50;26.80
51011;DHT22;37038;50.182;8.624;2023-02-28T16:16:49;5.40;27.10
51011;DHT22;37038;50.182;8.624;2023-02-28T16:19:37;5.30;27.60
51011;DHT22;37038;50.182;8.624;2023-02-28T16:22:27;5.20;28.40
51011;DHT22;37038;50.182;8.624;2023-02-28T16:25:18;5.20;28.60
51011;DHT22;37038;50.182;8.624;2023-02-28T16:28:19;5.20;28.50
51011;DHT22;37038;50.182;8.624;2023-02-28T16:31:08;5.10;29.00
51011;DHT22;37038;50.182;8.624;2023-02-28T16:33:56;5.30;29.00
51011;DHT22;37038;50.182;8.624;2023-02-28T16:36:49;5.20;28.90
51011;DHT22;37038;50.182;8.624;2023-02-28T16:39:37;5.20;29.10
51011;DHT22;37038;50.182;8.624;2023-02-28T16:42:27;5.60;29.10
51011;DHT22;37038;50.182;8.624;2023-02-28T16:45:23;5.70;28.30
51011;DHT22;37038;50.182;8.624;2023-02-28T16:48:16;5.50;29.20
51011;DHT22;37038;50.182;8.624;2023-02-28T16:51:04;5.10;30.00
51011;DHT22;37038;50.182;8.624;2023-02-28T16:53:52;4.90;30.10
51011;DHT22;37038;50.182;8.624;2023-02-28T16:56:43;4.60;30.80
51011;DHT22;37038;50.182;8.624;2023-02-28T16:59:32;4.40;31.60
51011;DHT22;37038;50.182;8.624;2023-02-28T17:02:20;4.10;32.70
51011;DHT22;37038;50.182;8.624;2023-02-28T17:05:12;3.90;33.20
51011;DHT22;37038;50.182;8.624;2023-02-28T17:08:00;3.90;33.60
51011;DHT22;37038;50.182;8.624;2023-02-28T17:10:48;3.80;34.00
51011;DHT22;37038;50.182;8.624;2023-02-28T17:13:35;3.70;34.40
51011;DHT22;37038;50.182;8.624;2023-02-28T17:16:30;3.60;34.80
51011;DHT22;37038;50.182;8.624;2023-02-28T17:19:18;3.40;34.80
51011;DHT22;37038;50.182;8.624;2023-02-28T17:22:08;3.40;35.80
51011;DHT22;37038;50.182;8.624;2023-02-28T17:24:56;3.30;36.10
51011;DHT22;37038;50.182;8.624;2023-02-28T17:27:45;3.30;36.30
51011;DHT22;37038;50.182;8.624;2023-02-28T17:30:34;3.30;37.00
51011;DHT22;37038;50.182;8.624;2023-02-28T17:33:22;3.30;37.60
51011;DHT22;37038;50.182;8.624;2023-02-28T17:36:15;3.20;39.10
51011;DHT22;37038;50.182;8.624;2023-02-28T17:39:05;3.10;39.70
51011;DHT22;37038;50.182;8.624;2023-02-28T17:41:56;3.00;40.70
51011;DHT22;37038;50.182;8.624;2023-02-28T17:44:43;2.90;41.60
51011;DHT22;37038;50.182;8.624;2023-02-28T17:47:31;2.80;42.90
51011;DHT22;37038;50.182;8.624;2023-02-28T17:50:21;2.70;43.90
51011;DHT22;37038;50.182;8.624;2023-02-28T17:53:09;2.70;44.30
51011;DHT22;37038;50.182;8.624;2023-02-28T17:55:56;2.60;45.20
51011;DHT22;37038;50.182;8.624;2023-02-28T17:58:44;2.50;46.40
51011;DHT22;37038;50.182;8.624;2023-02-28T18:01:32;2.40;46.90
51011;DHT22;37038;50.182;8.624;2023-02-28T18:04:20;2.30;47.60
51011;DHT22;37038;50.182;8.624;2023-02-28T18:07:11;2.30;47.70
51011;DHT22;37038;50.182;8.624;2023-02-28T18:09:59;2.20;48.40
51011;DHT22;37038;50.182;8.624;2023-02-28T18:12:49;2.20;49.10
51011;DHT22;37038;50.182;8.624;2023-02-28T18:15:36;2.10;49.20
51011;DHT22;37038;50.182;8.624;2023-02-28T18:18:26;2.10;49.70
51011;DHT22;37038;50.182;8.624;2023-02-28T18:21:17;2.20;50.00
51011;DHT22;37038;50.182;8.624;2023-02-28T18:24:05;2.10;50.80
51011;DHT22;37038;50.182;8.624;2023-02-28T18:26:55;2.00;51.40
51011;DHT22;37038;50.182;8.624;2023-02-28T18:29:43;2.10;52.00
51011;DHT22;37038;50.182;8.624;2023-02-28T18:32:31;2.00;52.40
51011;DHT22;37038;50.182;8.624;2023-02-28T18:35:19;2.00;53.30
51011;DHT22;37038;50.182;8.624;2023-02-28T18:38:23;2.00;54.60
51011;DHT22;37038;50.182;8.624;2023-02-28T18:41:11;2.00;55.40
51011;DHT22;37038;50.182;8.624;2023-02-28T18:44:01;1.90;56.10
51011;DHT22;37038;50.182;8.624;2023-02-28T18:50:01;1.90;58.20
51011;DHT22;37038;50.182;8.624;2023-02-28T18:52:49;1.80;58.00
51011;DHT22;37038;50.182;8.624;2023-02-28T18:55:37;1.80;58.90
51011;DHT22;37038;50.182;8.624;2023-02-28T18:58:25;1.70;59.80
51011;DHT22;37038;50.182;8.624;2023-02-28T19:01:25;1.70;60.90
51011;DHT22;37038;50.182;8.624;2023-02-28T19:04:16;1.70;61.80
51011;DHT22;37038;50.182;8.624;2023-02-28T19:07:04;1.70;62.50
51011;DHT22;37038;50.182;8.624;2023-02-28T19:09:53;1.70;63.50
51011;DHT22;37038;50.182;8.624;2023-02-28T19:12:41;1.70;65.00
51011;DHT22;37038;50.182;8.624;2023-02-28T19:15:30;1.70;66.10
51011;DHT22;37038;50.182;8.624;2023-02-28T19:18:18;1.60;66.50
51011;DHT22;37038;50.182;8.624;2023-02-28T19:21:10;1.60;68.20
51011;DHT22;37038;50.182;8.624;2023-02-28T19:24:04;1.60;69.60
51011;DHT22;37038;50.182;8.624;2023-02-28T19:26:52;1.70;69.50
51011;DHT22;37038;50.182;8.624;2023-02-28T19:29:40;1.50;70.30
51011;DHT22;37038;50.182;8.624;2023-02-28T19:32:30;1.50;71.40
51011;DHT22;37038;50.182;8.624;2023-02-28T19:35:18;1.40;72.80
51011;DHT22;37038;50.182;8.624;2023-02-28T19:38:07;1.50;74.10
51011;DHT22;37038;50.182;8.624;2023-02-28T19:41:04;1.50;74.80
51011;DHT22;37038;50.182;8.624;2023-02-28T19:43:53;1.50;74.60
51011;DHT22;37038;50.182;8.624;2023-02-28T19:46:41;1.40;76.20
51011;DHT22;37038;50.182;8.624;2023-02-28T19:49:28;1.40;78.10
51011;DHT22;37038;50.182;8.624;2023-02-28T19:52:16;1.40;79.40
51011;DHT22;37038;50.182;8.624;2023-02-28T19:55:04;1.30;81.80
51011;DHT22;37038;50.182;8.624;2023-02-28T19:57:52;1.20;82.60
51011;DHT22;37038;50.182;8.624;2023-02-28T20:00:40;1.20;85.10
51011;DHT22;37038;50.182;8.624;2023-02-28T20:03:28;1.20;85.70
51011;DHT22;37038;50.182;8.624;2023-02-28T20:06:19;1.20;87.00
51011;DHT22;37038;50.182;8.624;2023-02-28T20:09:07;1.10;88.50
51011;DHT22;37038;50.182;8.624;2023-02-28T20:11:55;1.10;89.40
51011;DHT22;37038;50.182;8.624;2023-02-28T20:14:45;1.10;90.10
51011;DHT22;37038;50.182;8.624;2023-02-28T20:17:33;1.00;91.00
51011;DHT22;37038;50.182;8.624;2023-02-28T20:20:21;1.00;92.10
51011;DHT22;37038;50.182;8.624;2023-02-28T20:23:17;1.00;93.40
51011;DHT22;37038;50.182;8.624;2023-02-28T20:26:09;1.00;93.40
51011;DHT22;37038;50.182;8.624;2023-02-28T20:28:57;0.90;94.00
51011;DHT22;37038;50.182;8.624;2023-02-28T20:31:45;1.00;94.60
51011;DHT22;37038;50.182;8.624;2023-02-28T20:34:33;0.90;94.80
51011;DHT22;37038;50.182;8.624;2023-02-28T20:37:21;0.80;95.70
51011;DHT22;37038;50.182;8.624;2023-02-28T20:40:12;0.70;96.10
51011;DHT22;37038;50.182;8.624;2023-02-28T20:43:00;0.70;97.50
51011;DHT22;37038;50.182;8.624;2023-02-28T20:45:53;0.70;97.90